Niederrad, Germany

11:08 AM CEST on June 28, 2017 (GMT +0200)
Schwanheimer Straße | | Change Station

Elev 344 ft 50.09 °N, 8.64 °E | Updated 10 minutes ago

Mostly Cloudy
Mostly Cloudy
68.4 °F
Feels Like 68.4 °F
N
0.6
Wind Variable Wind from West
Gusts 2.5 mph

Today
High -- | Low -- °F
--% Chance of Precip.
Yesterday
High -- | Low -- °F
Precip. -- in
Pressure 29.52 in
Visibility 6.2 miles
Clouds Mostly Cloudy 3000 ft
Overcast 11000 ft
Dew Point 64 °F
Humidity 86%
Rainfall 0.00 in
Snow Depth Not available.
5:18 AM 9:38 PM
Waxing Crescent, 24% visible
METAR ETOU 280858Z 23008KT 9999 -RA BKN030 OVC110 19/18 A2953 RMK AO2A RAB0758 SLP997 P0006 60008 T01910176 58001
Pressure 29.52 in
Visibility 6.2 miles
Clouds Mostly Cloudy 3000 ft
Overcast 11000 ft
Dew Point 64 °F
Humidity 86%
Rainfall 0.00 in
Snow Depth Not available.
5:18 AM 9:38 PM
Waxing Crescent, 24% visible
METAR ETOU 280858Z 23008KT 9999 -RA BKN030 OVC110 19/18 A2953 RMK AO2A RAB0758 SLP997 P0006 60008 T01910176 58001

Get Severe Weather Alerts

Thanks for signing up!

Be on the lookout for a verification email in your inbox.

You'll start receiving the daily forecast at 6 AM.

×

10-Day Weather Forecast

×

Almanac

Astronomy

Jun. 28, 2017 Rise Set
Actual Time
Civil Twilight
Nautical Twilight
Astronomical Twilight
Moon
Length of Visible Light
Length of Day
Tomorrow will be .
, % of the Moon is Illuminated

Today's Extremes

Country Highs Country Lows

Community

WunderPhotos

Category 6

Welcome to Category 6. This is the collective home for Weather Underground's featured writeups by Dr. Jeff Masters (right), Bob Henson (left), Chris Burt, and other regular contributors.

Nearby

Air Quality

  Air Quality AQ Index Pollutant
Not available.

Snow Depth

Station Depth Elevation

Earthquake Activity

City Distance Mag. Time & Date
Minimum magnitude displayed is 2.5.

Coastal Water Temperatures

Place Temperature

Stations

Nearby Weather Stations

Station Location Temp. Windchill Dew Point Humidity Wind Precip. Elev Updated Type